Search for airport 
image banner adimage banner ad
image banner ad

DNJO - Jos/Yakubu Gowon

Located in Jos, Nigeria

ICAO - DNJO, IATA - JOS

Data provided by Airmate  

General information

Coordinates: N9°38'23" E8°52'9"
Elevation is 4229 feet MSL.
 
Rated:
View ratings: [VIEW]


View others Airports in Plateau

Operational data

Open for public use
Current time UTC:
Current local time:
Weather
TAF: TAF DNJO 122300Z 1300/1406 28008KT 9999 SCT006 BECMG 1302/1304 17006KT PROB30 TEMPO 1304/1308 5000 BR BKN004 BECMG 1308/1310 22013KT BKN007
View NOTAMs / SUP AIP / TFR affecting this airport [VIEW]
Communications frequencies: [VIEW]

Runways:

RWY identifierQFULength (ft)Width (ft)SurfaceLDA (ft)
1095°9845148ASP
28275°9843148

Airport contact information

Address: Jos Nigeria

Satellite view of DNJO